Aérodrome :
LOGIN :

S'inscrire | Disclaimer

   EN    FR    IT 

 










Légende :    VFR   VFR Marginal   IFR   IFR Intensif   IFR Très Intensif
Visi : 
Plafond : 
>= 8 km
>= 3000ft
5 à 8 km
1000 à 3000 ft
1500m à 5 km
500 à 1000 ft
800 à 1500m
200 à 500 ft
< 800m
< 200 ft
Symboles :   Orages  Brouillard  Fortes neiges  Fortes précipitations  Vent > 20 kt
SIGMETs :   Divers  Orages  Givrage  Turbulence  Onde Orograph.  Cendres Volcan.







- Altitude de l'aérodrome : 39 ft
- Code IATA : TRS


LIPQ - Friuli Venezia Giulia Apt. Trieste

METARs EXPIRÉS :
  • 241420Z 18006KT 160V240 9999 FEW060 31/19 Q1013
  • 241350Z 20007KT 160V240 9999 FEW060 31/20 Q1013
  • 241320Z 21009KT 180V240 9999 FEW060 31/20 Q1013
  • 241250Z 24008KT 9999 FEW060 32/20 Q1014
  • 241220Z 23008KT 9999 FEW060 32/19 Q1014
  • 241150Z 25008KT 9999 SCT060 32/18 Q1014

Prévision TAF périmée.
Pas de NOTAMs connus pour ce terrain.
1 SIGMET publié pour la FIR Milano (LIMM) :
 
Turbulence forte
LIMM SIGMET 19 VALID 251830/252130 LIMM- LIMM MILANO FIR SEV TURB OBS E OF LINE N4706 E01146 - N4327 E01217 FL270/420 MOV E NC=



MET'MAP, la Météo Aéronautique d'un coup d'oeil ! - Copyright ORBIFLY Décembre 2007 - Disclaimer

ORBIFLY MET'MAP TEAM :

Programmation & Développement : Alexandra Zaïnal
Conception & Développement : Baudouin d'Aumeries
Co-Programmation & Développement : Marc-Olivier Méhu
Soutien technique & logistique : Manuel Goepfert

Contact : metmap@orbifly.com




SOURCES & CREDITS :

   NOAA